This is the latest recevied weather packets stored in our database for station/object KE0FIN. If no packets are shown the sender has not sent any weather packets the latest 1 day(s).
| Time | Temp. | Humidity | Pressure | Rain* | Wind** | Luminosity | Snow |
|---|---|---|---|---|---|---|---|
| 1778032961 | 8.89° C | 95% | 1065.5 hPa | 0 mm | - | 0 W/m² | - |
| 1778032658 | 8.89° C | 95% | 1065.2 hPa | 0 mm | - | 0 W/m² | - |
| 1778032052 | 8.89° C | 94% | 1065.1 hPa | 0 mm | - | 0 W/m² | - |
| 1778031748 | 8.89° C | 93% | 1065 hPa | 0 mm | - | 0 W/m² | - |
| 1778031446 | 8.89° C | 93% | 1064.8 hPa | 0 mm | - | 0 W/m² | - |
| 1778031144 | 8.89° C | 93% | 1064.8 hPa | 0 mm | - | 0 W/m² | - |
| 1778030840 | 8.89° C | 92% | 1064.4 hPa | 0 mm | - | 0 W/m² | - |
| 1778030537 | 8.89° C | 91% | 1064.4 hPa | 0 mm | - | 1 W/m² | - |
| 1778030234 | 8.89° C | 90% | 1064.1 hPa | 0 mm | - | 1 W/m² | - |
| 1778029930 | 8.89° C | 90% | 1064.1 hPa | 1.27 mm | - | 2 W/m² | - |
| 1778029326 | 8.89° C | 89% | 1064.3 hPa | 0 mm | - | 2 W/m² | - |
| 1778029023 | 9.44° C | 87% | 1063.9 hPa | 0 mm | - | 3 W/m² | - |
| 1778028720 | 9.44° C | 86% | 1064 hPa | 0 mm | - | 2 W/m² | - |
| 1778028415 | 9.44° C | 84% | 1063.8 hPa | 0 mm | - | 5 W/m² | - |
| 1778027505 | 10° C | 77% | 1063.4 hPa | 1.78 mm | - | 13 W/m² | - |
| 1778027201 | 10.56° C | 76% | 1063.5 hPa | 1.78 mm | - | 8 W/m² | - |
| 1778026593 | 11.11° C | 71% | 1063.6 hPa | 0 mm | - | 7 W/m² | - |
| 1778026291 | 11.67° C | 66% | 1063.5 hPa | 0 mm | - | 10 W/m² | - |
| 1778025988 | 11.67° C | 63% | 1063.4 hPa | 0 mm | - | 12 W/m² | - |
| 1778025686 | 11.67° C | 63% | 1063.4 hPa | 0 mm | - | 10 W/m² | - |
| 1778022960 | 11.67° C | 58% | 1063.2 hPa | 0 mm | - | 34 W/m² | - |
| 1778022052 | 11.67° C | 58% | 1063 hPa | 0 mm | - | 37 W/m² | - |
| 1778020840 | 12.22° C | 60% | 1062.8 hPa | 0 mm | - | 112 W/m² | - |
| 1778019323 | 12.78° C | 59% | 1062.9 hPa | 0 mm | - | 114 W/m² | - |
| 1778015385 | 12.22° C | 70% | 1063.3 hPa | 0 mm | - | 191 W/m² | - |
* Rain latest hour (hover to see other rain measurements)
** Current wind speed in m/s (hover to see current wind gust speed)